sensor_id;sensor_type;location;lat;lon;timestamp;P1;durP1;ratioP1;P2;durP2;ratioP2
24585;SDS011;12743;52.262;6.172;2024-02-23T00:01:10;1.92;;;0.00;;
24585;SDS011;12743;52.262;6.172;2024-02-23T00:03:38;0.60;;;0.00;;
24585;SDS011;12743;52.262;6.172;2024-02-23T00:06:05;1.92;;;0.20;;
24585;SDS011;12743;52.262;6.172;2024-02-23T00:08:32;1.95;;;0.10;;
24585;SDS011;12743;52.262;6.172;2024-02-23T00:10:59;1.77;;;0.10;;
24585;SDS011;12743;52.262;6.172;2024-02-23T00:13:26;1.67;;;0.20;;
24585;SDS011;12743;52.262;6.172;2024-02-23T00:15:52;1.13;;;0.10;;
24585;SDS011;12743;52.262;6.172;2024-02-23T00:18:19;2.55;;;0.30;;
24585;SDS011;12743;52.262;6.172;2024-02-23T00:20:46;2.90;;;0.50;;
24585;SDS011;12743;52.262;6.172;2024-02-23T00:23:13;2.67;;;0.30;;
24585;SDS011;12743;52.262;6.172;2024-02-23T00:25:40;3.70;;;0.30;;
24585;SDS011;12743;52.262;6.172;2024-02-23T00:28:07;3.30;;;0.40;;
24585;SDS011;12743;52.262;6.172;2024-02-23T00:30:34;2.65;;;0.38;;
24585;SDS011;12743;52.262;6.172;2024-02-23T00:33:02;2.08;;;0.50;;
24585;SDS011;12743;52.262;6.172;2024-02-23T00:35:28;2.92;;;0.40;;
24585;SDS011;12743;52.262;6.172;2024-02-23T00:37:55;3.17;;;0.50;;
24585;SDS011;12743;52.262;6.172;2024-02-23T00:40:22;2.90;;;0.50;;
24585;SDS011;12743;52.262;6.172;2024-02-23T00:42:51;3.80;;;0.50;;
24585;SDS011;12743;52.262;6.172;2024-02-23T00:45:18;3.38;;;0.55;;
24585;SDS011;12743;52.262;6.172;2024-02-23T00:47:45;2.78;;;0.40;;
24585;SDS011;12743;52.262;6.172;2024-02-23T00:50:14;3.85;;;0.68;;
24585;SDS011;12743;52.262;6.172;2024-02-23T00:52:41;2.90;;;0.53;;
24585;SDS011;12743;52.262;6.172;2024-02-23T00:55:08;3.83;;;0.40;;
24585;SDS011;12743;52.262;6.172;2024-02-23T00:57:35;5.07;;;0.85;;
24585;SDS011;12743;52.262;6.172;2024-02-23T01:00:03;5.10;;;0.50;;
24585;SDS011;12743;52.262;6.172;2024-02-23T01:02:31;6.28;;;0.55;;
24585;SDS011;12743;52.262;6.172;2024-02-23T01:04:59;5.93;;;0.83;;
24585;SDS011;12743;52.262;6.172;2024-02-23T01:07:26;4.60;;;0.30;;
24585;SDS011;12743;52.262;6.172;2024-02-23T01:09:54;6.10;;;0.80;;
24585;SDS011;12743;52.262;6.172;2024-02-23T01:12:20;8.13;;;0.60;;
24585;SDS011;12743;52.262;6.172;2024-02-23T01:14:47;7.25;;;0.60;;
24585;SDS011;12743;52.262;6.172;2024-02-23T01:17:15;6.47;;;0.50;;
24585;SDS011;12743;52.262;6.172;2024-02-23T01:19:43;6.03;;;0.80;;
24585;SDS011;12743;52.262;6.172;2024-02-23T01:22:09;10.18;;;0.70;;
24585;SDS011;12743;52.262;6.172;2024-02-23T01:24:36;3.67;;;0.80;;
24585;SDS011;12743;52.262;6.172;2024-02-23T01:27:03;5.28;;;1.00;;
24585;SDS011;12743;52.262;6.172;2024-02-23T01:29:29;6.43;;;1.20;;
24585;SDS011;12743;52.262;6.172;2024-02-23T01:31:56;4.15;;;0.98;;
24585;SDS011;12743;52.262;6.172;2024-02-23T01:34:23;7.07;;;0.70;;
24585;SDS011;12743;52.262;6.172;2024-02-23T01:36:50;5.10;;;0.88;;
24585;SDS011;12743;52.262;6.172;2024-02-23T01:39:16;5.22;;;0.50;;
24585;SDS011;12743;52.262;6.172;2024-02-23T01:41:43;3.17;;;0.40;;
24585;SDS011;12743;52.262;6.172;2024-02-23T01:44:10;7.13;;;0.70;;
24585;SDS011;12743;52.262;6.172;2024-02-23T01:46:37;5.25;;;0.45;;
24585;SDS011;12743;52.262;6.172;2024-02-23T01:49:05;4.53;;;0.55;;
24585;SDS011;12743;52.262;6.172;2024-02-23T01:51:32;3.75;;;0.40;;
24585;SDS011;12743;52.262;6.172;2024-02-23T01:53:59;6.93;;;0.60;;
24585;SDS011;12743;52.262;6.172;2024-02-23T01:56:25;3.35;;;0.40;;
24585;SDS011;12743;52.262;6.172;2024-02-23T01:58:53;2.45;;;0.20;;
24585;SDS011;12743;52.262;6.172;2024-02-23T02:01:20;2.17;;;0.10;;
24585;SDS011;12743;52.262;6.172;2024-02-23T02:03:47;2.08;;;0.10;;
24585;SDS011;12743;52.262;6.172;2024-02-23T02:06:13;1.20;;;0.00;;
24585;SDS011;12743;52.262;6.172;2024-02-23T02:08:41;2.28;;;0.10;;
24585;SDS011;12743;52.262;6.172;2024-02-23T02:11:08;2.90;;;0.10;;
24585;SDS011;12743;52.262;6.172;2024-02-23T02:13:34;4.30;;;0.10;;
24585;SDS011;12743;52.262;6.172;2024-02-23T02:16:01;2.90;;;0.20;;
24585;SDS011;12743;52.262;6.172;2024-02-23T02:18:31;5.60;;;0.57;;
24585;SDS011;12743;52.262;6.172;2024-02-23T02:20:57;5.70;;;0.40;;
24585;SDS011;12743;52.262;6.172;2024-02-23T02:23:25;2.30;;;0.50;;
24585;SDS011;12743;52.262;6.172;2024-02-23T02:25:56;5.78;;;0.30;;
24585;SDS011;12743;52.262;6.172;2024-02-23T02:28:24;3.72;;;0.20;;
24585;SDS011;12743;52.262;6.172;2024-02-23T02:30:51;2.33;;;0.40;;
24585;SDS011;12743;52.262;6.172;2024-02-23T02:33:21;4.78;;;0.57;;
24585;SDS011;12743;52.262;6.172;2024-02-23T02:35:48;7.05;;;1.20;;
24585;SDS011;12743;52.262;6.172;2024-02-23T02:38:16;5.97;;;1.65;;
24585;SDS011;12743;52.262;6.172;2024-02-23T02:40:43;7.72;;;2.33;;
24585;SDS011;12743;52.262;6.172;2024-02-23T02:43:10;8.50;;;2.30;;
24585;SDS011;12743;52.262;6.172;2024-02-23T02:45:37;9.77;;;2.50;;
24585;SDS011;12743;52.262;6.172;2024-02-23T02:48:04;7.55;;;2.40;;
24585;SDS011;12743;52.262;6.172;2024-02-23T02:50:31;7.43;;;2.90;;
24585;SDS011;12743;52.262;6.172;2024-02-23T02:52:58;8.65;;;2.75;;
24585;SDS011;12743;52.262;6.172;2024-02-23T02:55:24;9.80;;;3.40;;
24585;SDS011;12743;52.262;6.172;2024-02-23T02:57:51;11.10;;;3.13;;
24585;SDS011;12743;52.262;6.172;2024-02-23T03:00:18;9.68;;;3.10;;
24585;SDS011;12743;52.262;6.172;2024-02-23T03:02:44;11.80;;;2.50;;
24585;SDS011;12743;52.262;6.172;2024-02-23T03:05:11;10.35;;;2.30;;
24585;SDS011;12743;52.262;6.172;2024-02-23T03:07:38;9.93;;;2.93;;
24585;SDS011;12743;52.262;6.172;2024-02-23T03:10:04;10.05;;;1.35;;
24585;SDS011;12743;52.262;6.172;2024-02-23T03:12:32;5.95;;;1.02;;
24585;SDS011;12743;52.262;6.172;2024-02-23T03:14:58;7.35;;;1.10;;
24585;SDS011;12743;52.262;6.172;2024-02-23T03:17:25;10.50;;;1.73;;
24585;SDS011;12743;52.262;6.172;2024-02-23T03:19:52;5.83;;;1.07;;
24585;SDS011;12743;52.262;6.172;2024-02-23T03:22:19;11.60;;;1.20;;
24585;SDS011;12743;52.262;6.172;2024-02-23T03:24:46;5.45;;;0.90;;
24585;SDS011;12743;52.262;6.172;2024-02-23T03:27:12;8.48;;;0.82;;
24585;SDS011;12743;52.262;6.172;2024-02-23T03:29:40;9.77;;;0.90;;
24585;SDS011;12743;52.262;6.172;2024-02-23T03:32:07;8.90;;;0.90;;
24585;SDS011;12743;52.262;6.172;2024-02-23T03:34:35;7.68;;;0.98;;
24585;SDS011;12743;52.262;6.172;2024-02-23T03:37:02;6.65;;;1.30;;
24585;SDS011;12743;52.262;6.172;2024-02-23T03:39:29;7.43;;;0.85;;
24585;SDS011;12743;52.262;6.172;2024-02-23T03:41:56;6.53;;;0.80;;
24585;SDS011;12743;52.262;6.172;2024-02-23T03:44:22;8.77;;;1.10;;
24585;SDS011;12743;52.262;6.172;2024-02-23T03:46:50;6.18;;;0.88;;
24585;SDS011;12743;52.262;6.172;2024-02-23T03:49:16;10.48;;;0.93;;
24585;SDS011;12743;52.262;6.172;2024-02-23T03:51:43;8.70;;;1.05;;
24585;SDS011;12743;52.262;6.172;2024-02-23T03:54:10;7.03;;;0.90;;
24585;SDS011;12743;52.262;6.172;2024-02-23T03:56:37;7.10;;;1.00;;
24585;SDS011;12743;52.262;6.172;2024-02-23T03:59:06;7.50;;;1.05;;
24585;SDS011;12743;52.262;6.172;2024-02-23T04:01:38;6.55;;;0.63;;
24585;SDS011;12743;52.262;6.172;2024-02-23T04:04:06;6.40;;;0.85;;
24585;SDS011;12743;52.262;6.172;2024-02-23T04:06:33;8.30;;;0.90;;
24585;SDS011;12743;52.262;6.172;2024-02-23T04:09:00;10.27;;;1.40;;
24585;SDS011;12743;52.262;6.172;2024-02-23T04:11:27;9.77;;;1.80;;
24585;SDS011;12743;52.262;6.172;2024-02-23T04:13:54;7.05;;;1.00;;
24585;SDS011;12743;52.262;6.172;2024-02-23T04:16:23;7.25;;;0.95;;
24585;SDS011;12743;52.262;6.172;2024-02-23T04:18:51;5.60;;;0.50;;
24585;SDS011;12743;52.262;6.172;2024-02-23T04:21:18;6.27;;;0.80;;
24585;SDS011;12743;52.262;6.172;2024-02-23T04:23:44;8.00;;;1.10;;
24585;SDS011;12743;52.262;6.172;2024-02-23T04:26:11;6.63;;;1.15;;
24585;SDS011;12743;52.262;6.172;2024-02-23T04:28:41;6.20;;;1.05;;
24585;SDS011;12743;52.262;6.172;2024-02-23T04:31:08;5.35;;;1.35;;
24585;SDS011;12743;52.262;6.172;2024-02-23T04:33:36;8.43;;;1.77;;
24585;SDS011;12743;52.262;6.172;2024-02-23T04:36:03;8.85;;;1.38;;
24585;SDS011;12743;52.262;6.172;2024-02-23T04:38:31;9.13;;;1.75;;
24585;SDS011;12743;52.262;6.172;2024-02-23T04:40:57;10.45;;;1.40;;
24585;SDS011;12743;52.262;6.172;2024-02-23T04:43:24;6.13;;;1.33;;
24585;SDS011;12743;52.262;6.172;2024-02-23T04:45:51;7.33;;;1.30;;
24585;SDS011;12743;52.262;6.172;2024-02-23T04:48:18;7.22;;;1.40;;
24585;SDS011;12743;52.262;6.172;2024-02-23T04:50:45;8.70;;;1.58;;
24585;SDS011;12743;52.262;6.172;2024-02-23T04:53:11;10.35;;;1.48;;
24585;SDS011;12743;52.262;6.172;2024-02-23T04:55:38;7.60;;;1.85;;
24585;SDS011;12743;52.262;6.172;2024-02-23T04:58:05;9.47;;;1.50;;
24585;SDS011;12743;52.262;6.172;2024-02-23T05:00:33;9.05;;;1.75;;
24585;SDS011;12743;52.262;6.172;2024-02-23T05:03:00;6.65;;;1.50;;
24585;SDS011;12743;52.262;6.172;2024-02-23T05:05:30;9.60;;;1.52;;
24585;SDS011;12743;52.262;6.172;2024-02-23T05:07:58;9.45;;;1.45;;
24585;SDS011;12743;52.262;6.172;2024-02-23T05:10:25;9.50;;;1.13;;
24585;SDS011;12743;52.262;6.172;2024-02-23T05:12:53;9.77;;;1.73;;
24585;SDS011;12743;52.262;6.172;2024-02-23T05:15:19;6.65;;;1.38;;
24585;SDS011;12743;52.262;6.172;2024-02-23T05:17:46;8.57;;;1.88;;
24585;SDS011;12743;52.262;6.172;2024-02-23T05:20:13;18.20;;;2.08;;
24585;SDS011;12743;52.262;6.172;2024-02-23T05:22:40;10.80;;;1.80;;
24585;SDS011;12743;52.262;6.172;2024-02-23T05:25:07;7.05;;;1.70;;
24585;SDS011;12743;52.262;6.172;2024-02-23T05:27:34;5.47;;;1.25;;
24585;SDS011;12743;52.262;6.172;2024-02-23T05:30:01;8.10;;;1.08;;
24585;SDS011;12743;52.262;6.172;2024-02-23T05:32:27;7.20;;;1.25;;
24585;SDS011;12743;52.262;6.172;2024-02-23T05:34:54;5.97;;;0.83;;
24585;SDS011;12743;52.262;6.172;2024-02-23T05:37:23;7.68;;;1.17;;
24585;SDS011;12743;52.262;6.172;2024-02-23T05:39:50;8.40;;;1.17;;
24585;SDS011;12743;52.262;6.172;2024-02-23T05:42:17;6.90;;;1.60;;
24585;SDS011;12743;52.262;6.172;2024-02-23T05:44:44;9.73;;;0.80;;
24585;SDS011;12743;52.262;6.172;2024-02-23T05:47:11;9.10;;;1.30;;
24585;SDS011;12743;52.262;6.172;2024-02-23T05:49:40;6.38;;;0.80;;
24585;SDS011;12743;52.262;6.172;2024-02-23T05:52:07;6.22;;;1.42;;
24585;SDS011;12743;52.262;6.172;2024-02-23T05:54:33;7.90;;;1.30;;
24585;SDS011;12743;52.262;6.172;2024-02-23T05:57:00;6.15;;;0.93;;
24585;SDS011;12743;52.262;6.172;2024-02-23T05:59:27;8.83;;;0.77;;
24585;SDS011;12743;52.262;6.172;2024-02-23T06:01:54;7.78;;;0.70;;
24585;SDS011;12743;52.262;6.172;2024-02-23T06:04:23;9.00;;;1.52;;
24585;SDS011;12743;52.262;6.172;2024-02-23T06:06:50;9.68;;;0.88;;
24585;SDS011;12743;52.262;6.172;2024-02-23T06:09:17;6.55;;;0.98;;
24585;SDS011;12743;52.262;6.172;2024-02-23T06:11:45;8.27;;;1.00;;
24585;SDS011;12743;52.262;6.172;2024-02-23T06:14:12;8.10;;;1.00;;
24585;SDS011;12743;52.262;6.172;2024-02-23T06:16:39;4.68;;;0.80;;
24585;SDS011;12743;52.262;6.172;2024-02-23T06:19:11;13.57;;;1.08;;
24585;SDS011;12743;52.262;6.172;2024-02-23T06:21:38;6.22;;;0.60;;
24585;SDS011;12743;52.262;6.172;2024-02-23T06:24:05;8.10;;;1.13;;
24585;SDS011;12743;52.262;6.172;2024-02-23T06:26:31;7.88;;;0.93;;
24585;SDS011;12743;52.262;6.172;2024-02-23T06:28:58;5.40;;;0.57;;
24585;SDS011;12743;52.262;6.172;2024-02-23T06:31:25;5.28;;;0.47;;
24585;SDS011;12743;52.262;6.172;2024-02-23T06:33:52;4.78;;;0.50;;
24585;SDS011;12743;52.262;6.172;2024-02-23T06:36:19;6.87;;;0.80;;
24585;SDS011;12743;52.262;6.172;2024-02-23T06:38:45;5.70;;;0.70;;
24585;SDS011;12743;52.262;6.172;2024-02-23T06:41:12;4.82;;;1.02;;
24585;SDS011;12743;52.262;6.172;2024-02-23T06:43:39;8.52;;;1.10;;
24585;SDS011;12743;52.262;6.172;2024-02-23T06:46:06;5.10;;;0.50;;
24585;SDS011;12743;52.262;6.172;2024-02-23T06:48:35;9.37;;;0.70;;
24585;SDS011;12743;52.262;6.172;2024-02-23T06:51:02;6.10;;;0.82;;
24585;SDS011;12743;52.262;6.172;2024-02-23T06:53:30;3.58;;;0.40;;
24585;SDS011;12743;52.262;6.172;2024-02-23T06:55:57;7.45;;;0.60;;
24585;SDS011;12743;52.262;6.172;2024-02-23T06:58:25;7.88;;;1.38;;
24585;SDS011;12743;52.262;6.172;2024-02-23T07:00:52;6.80;;;0.80;;
24585;SDS011;12743;52.262;6.172;2024-02-23T07:03:18;8.63;;;0.95;;
24585;SDS011;12743;52.262;6.172;2024-02-23T07:05:45;5.82;;;0.80;;
24585;SDS011;12743;52.262;6.172;2024-02-23T07:08:13;3.85;;;0.40;;
24585;SDS011;12743;52.262;6.172;2024-02-23T07:10:40;4.80;;;0.30;;
24585;SDS011;12743;52.262;6.172;2024-02-23T07:13:07;10.17;;;1.00;;
24585;SDS011;12743;52.262;6.172;2024-02-23T07:15:34;5.68;;;0.98;;
24585;SDS011;12743;52.262;6.172;2024-02-23T07:18:02;7.75;;;0.80;;
24585;SDS011;12743;52.262;6.172;2024-02-23T07:20:29;5.90;;;0.80;;
24585;SDS011;12743;52.262;6.172;2024-02-23T07:22:55;6.57;;;0.55;;
24585;SDS011;12743;52.262;6.172;2024-02-23T07:25:22;7.60;;;0.40;;
24585;SDS011;12743;52.262;6.172;2024-02-23T07:27:49;7.65;;;0.77;;
24585;SDS011;12743;52.262;6.172;2024-02-23T07:30:16;8.27;;;0.90;;
24585;SDS011;12743;52.262;6.172;2024-02-23T07:32:43;5.28;;;0.57;;
24585;SDS011;12743;52.262;6.172;2024-02-23T07:35:15;5.68;;;0.50;;
24585;SDS011;12743;52.262;6.172;2024-02-23T07:37:41;7.20;;;1.00;;
24585;SDS011;12743;52.262;6.172;2024-02-23T07:40:08;5.93;;;0.80;;
24585;SDS011;12743;52.262;6.172;2024-02-23T07:42:35;6.80;;;0.63;;
24585;SDS011;12743;52.262;6.172;2024-02-23T07:45:05;6.60;;;0.55;;
24585;SDS011;12743;52.262;6.172;2024-02-23T07:47:33;4.65;;;0.50;;
24585;SDS011;12743;52.262;6.172;2024-02-23T07:50:00;5.43;;;0.57;;
24585;SDS011;12743;52.262;6.172;2024-02-23T07:52:27;6.10;;;0.40;;
24585;SDS011;12743;52.262;6.172;2024-02-23T07:54:53;7.97;;;0.60;;
24585;SDS011;12743;52.262;6.172;2024-02-23T07:57:20;5.13;;;0.40;;
24585;SDS011;12743;52.262;6.172;2024-02-23T07:59:47;5.57;;;0.40;;
24585;SDS011;12743;52.262;6.172;2024-02-23T08:02:14;6.10;;;0.70;;
24585;SDS011;12743;52.262;6.172;2024-02-23T08:04:41;6.65;;;0.50;;
24585;SDS011;12743;52.262;6.172;2024-02-23T08:07:08;7.80;;;0.85;;
24585;SDS011;12743;52.262;6.172;2024-02-23T08:09:35;4.40;;;0.20;;
24585;SDS011;12743;52.262;6.172;2024-02-23T08:12:02;5.25;;;0.70;;
24585;SDS011;12743;52.262;6.172;2024-02-23T08:14:29;5.93;;;0.40;;
24585;SDS011;12743;52.262;6.172;2024-02-23T08:16:56;5.63;;;0.50;;
24585;SDS011;12743;52.262;6.172;2024-02-23T08:19:22;4.75;;;0.68;;
24585;SDS011;12743;52.262;6.172;2024-02-23T08:21:49;8.15;;;0.40;;
24585;SDS011;12743;52.262;6.172;2024-02-23T08:24:16;6.38;;;0.65;;
24585;SDS011;12743;52.262;6.172;2024-02-23T08:26:43;7.67;;;0.43;;
24585;SDS011;12743;52.262;6.172;2024-02-23T08:29:10;6.32;;;1.27;;
24585;SDS011;12743;52.262;6.172;2024-02-23T08:31:37;8.38;;;0.70;;
24585;SDS011;12743;52.262;6.172;2024-02-23T08:34:07;6.07;;;0.47;;
24585;SDS011;12743;52.262;6.172;2024-02-23T08:36:34;6.40;;;0.55;;
24585;SDS011;12743;52.262;6.172;2024-02-23T08:39:01;5.27;;;0.30;;
24585;SDS011;12743;52.262;6.172;2024-02-23T08:41:29;5.78;;;0.40;;
24585;SDS011;12743;52.262;6.172;2024-02-23T08:43:56;7.85;;;0.52;;
24585;SDS011;12743;52.262;6.172;2024-02-23T08:46:23;4.43;;;0.25;;
24585;SDS011;12743;52.262;6.172;2024-02-23T08:48:50;6.22;;;0.40;;
24585;SDS011;12743;52.262;6.172;2024-02-23T08:51:16;7.63;;;0.67;;
24585;SDS011;12743;52.262;6.172;2024-02-23T08:53:43;6.18;;;0.40;;
24585;SDS011;12743;52.262;6.172;2024-02-23T08:56:10;4.93;;;0.80;;
24585;SDS011;12743;52.262;6.172;2024-02-23T08:58:38;5.05;;;0.40;;
24585;SDS011;12743;52.262;6.172;2024-02-23T09:01:04;11.88;;;0.98;;
24585;SDS011;12743;52.262;6.172;2024-02-23T09:03:31;4.83;;;1.03;;
24585;SDS011;12743;52.262;6.172;2024-02-23T09:05:58;4.70;;;0.43;;
24585;SDS011;12743;52.262;6.172;2024-02-23T09:08:25;8.93;;;0.77;;
24585;SDS011;12743;52.262;6.172;2024-02-23T09:10:52;6.57;;;0.73;;
24585;SDS011;12743;52.262;6.172;2024-02-23T09:13:19;5.38;;;0.60;;
24585;SDS011;12743;52.262;6.172;2024-02-23T09:15:45;6.37;;;1.00;;
24585;SDS011;12743;52.262;6.172;2024-02-23T09:18:12;9.25;;;0.52;;
24585;SDS011;12743;52.262;6.172;2024-02-23T09:20:39;7.10;;;0.45;;
24585;SDS011;12743;52.262;6.172;2024-02-23T09:23:06;5.32;;;0.40;;
24585;SDS011;12743;52.262;6.172;2024-02-23T09:25:32;7.65;;;0.68;;
24585;SDS011;12743;52.262;6.172;2024-02-23T09:27:59;6.17;;;0.30;;
24585;SDS011;12743;52.262;6.172;2024-02-23T09:30:26;4.43;;;0.20;;
24585;SDS011;12743;52.262;6.172;2024-02-23T09:32:52;6.65;;;0.50;;
24585;SDS011;12743;52.262;6.172;2024-02-23T09:35:19;5.10;;;0.52;;
24585;SDS011;12743;52.262;6.172;2024-02-23T09:37:46;2.80;;;0.20;;
24585;SDS011;12743;52.262;6.172;2024-02-23T09:40:14;4.77;;;0.30;;
24585;SDS011;12743;52.262;6.172;2024-02-23T09:42:42;5.82;;;0.50;;
24585;SDS011;12743;52.262;6.172;2024-02-23T09:45:08;10.27;;;1.52;;
24585;SDS011;12743;52.262;6.172;2024-02-23T09:47:37;5.88;;;0.70;;
24585;SDS011;12743;52.262;6.172;2024-02-23T09:50:05;8.27;;;0.43;;
24585;SDS011;12743;52.262;6.172;2024-02-23T09:52:33;5.63;;;0.30;;
24585;SDS011;12743;52.262;6.172;2024-02-23T09:55:00;8.32;;;0.55;;
24585;SDS011;12743;52.262;6.172;2024-02-23T09:57:26;5.20;;;0.40;;
24585;SDS011;12743;52.262;6.172;2024-02-23T09:59:53;6.20;;;0.50;;
24585;SDS011;12743;52.262;6.172;2024-02-23T10:02:21;3.65;;;0.20;;
24585;SDS011;12743;52.262;6.172;2024-02-23T10:04:47;6.60;;;0.50;;
24585;SDS011;12743;52.262;6.172;2024-02-23T10:07:15;5.80;;;0.55;;
24585;SDS011;12743;52.262;6.172;2024-02-23T10:09:45;7.07;;;0.50;;
24585;SDS011;12743;52.262;6.172;2024-02-23T10:12:12;4.13;;;0.20;;
24585;SDS011;12743;52.262;6.172;2024-02-23T10:14:41;7.07;;;0.55;;
24585;SDS011;12743;52.262;6.172;2024-02-23T10:17:08;4.93;;;0.63;;
24585;SDS011;12743;52.262;6.172;2024-02-23T10:19:34;6.30;;;0.82;;
24585;SDS011;12743;52.262;6.172;2024-02-23T10:22:01;4.70;;;0.30;;
24585;SDS011;12743;52.262;6.172;2024-02-23T10:24:28;5.88;;;0.28;;
24585;SDS011;12743;52.262;6.172;2024-02-23T10:26:55;3.72;;;0.40;;
24585;SDS011;12743;52.262;6.172;2024-02-23T10:29:21;4.83;;;0.40;;
24585;SDS011;12743;52.262;6.172;2024-02-23T10:31:48;6.22;;;0.50;;
24585;SDS011;12743;52.262;6.172;2024-02-23T10:34:18;6.07;;;0.50;;
24585;SDS011;12743;52.262;6.172;2024-02-23T10:36:46;6.32;;;0.30;;
24585;SDS011;12743;52.262;6.172;2024-02-23T10:39:17;3.75;;;0.30;;
24585;SDS011;12743;52.262;6.172;2024-02-23T10:41:47;6.80;;;0.50;;
24585;SDS011;12743;52.262;6.172;2024-02-23T10:44:22;5.38;;;0.43;;
24585;SDS011;12743;52.262;6.172;2024-02-23T10:46:50;6.43;;;0.60;;
24585;SDS011;12743;52.262;6.172;2024-02-23T10:49:17;5.00;;;0.55;;
24585;SDS011;12743;52.262;6.172;2024-02-23T10:51:49;6.28;;;0.60;;
24585;SDS011;12743;52.262;6.172;2024-02-23T10:54:18;8.47;;;0.87;;
24585;SDS011;12743;52.262;6.172;2024-02-23T10:56:47;6.05;;;0.60;;
24585;SDS011;12743;52.262;6.172;2024-02-23T10:59:14;5.97;;;0.60;;
24585;SDS011;12743;52.262;6.172;2024-02-23T11:01:48;6.20;;;0.60;;
24585;SDS011;12743;52.262;6.172;2024-02-23T11:04:16;9.32;;;0.77;;
24585;SDS011;12743;52.262;6.172;2024-02-23T11:06:48;3.90;;;0.60;;
24585;SDS011;12743;52.262;6.172;2024-02-23T11:09:17;6.82;;;0.75;;
24585;SDS011;12743;52.262;6.172;2024-02-23T11:11:51;5.60;;;0.40;;
24585;SDS011;12743;52.262;6.172;2024-02-23T11:17:02;5.15;;;0.30;;
24585;SDS011;12743;52.262;6.172;2024-02-23T11:19:33;5.43;;;0.37;;
24585;SDS011;12743;52.262;6.172;2024-02-23T11:22:01;7.55;;;0.40;;
24585;SDS011;12743;52.262;6.172;2024-02-23T11:24:29;5.75;;;0.70;;
24585;SDS011;12743;52.262;6.172;2024-02-23T11:26:59;4.40;;;0.77;;
24585;SDS011;12743;52.262;6.172;2024-02-23T11:29:34;4.85;;;0.63;;
24585;SDS011;12743;52.262;6.172;2024-02-23T11:32:02;4.27;;;0.67;;
24585;SDS011;12743;52.262;6.172;2024-02-23T11:34:30;3.33;;;0.38;;
24585;SDS011;12743;52.262;6.172;2024-02-23T11:36:57;3.97;;;0.50;;
24585;SDS011;12743;52.262;6.172;2024-02-23T11:39:26;4.43;;;0.40;;
24585;SDS011;12743;52.262;6.172;2024-02-23T11:41:53;5.57;;;0.52;;
24585;SDS011;12743;52.262;6.172;2024-02-23T11:44:19;3.93;;;0.30;;
24585;SDS011;12743;52.262;6.172;2024-02-23T11:46:46;4.10;;;0.40;;
24585;SDS011;12743;52.262;6.172;2024-02-23T11:49:16;5.90;;;0.45;;
24585;SDS011;12743;52.262;6.172;2024-02-23T11:51:43;5.20;;;0.40;;
24585;SDS011;12743;52.262;6.172;2024-02-23T11:54:10;2.85;;;0.30;;
24585;SDS011;12743;52.262;6.172;2024-02-23T11:56:37;3.43;;;0.30;;
24585;SDS011;12743;52.262;6.172;2024-02-23T11:59:04;6.65;;;0.40;;
24585;SDS011;12743;52.262;6.172;2024-02-23T12:01:31;5.53;;;0.30;;
24585;SDS011;12743;52.262;6.172;2024-02-23T12:03:58;4.40;;;0.40;;
24585;SDS011;12743;52.262;6.172;2024-02-23T12:06:25;5.32;;;0.40;;
24585;SDS011;12743;52.262;6.172;2024-02-23T12:08:55;6.20;;;0.30;;
24585;SDS011;12743;52.262;6.172;2024-02-23T12:11:22;4.10;;;0.30;;
24585;SDS011;12743;52.262;6.172;2024-02-23T12:13:49;3.03;;;0.20;;
24585;SDS011;12743;52.262;6.172;2024-02-23T12:16:17;2.45;;;0.20;;
24585;SDS011;12743;52.262;6.172;2024-02-23T12:18:44;5.85;;;0.40;;
24585;SDS011;12743;52.262;6.172;2024-02-23T12:21:10;6.50;;;0.60;;
24585;SDS011;12743;52.262;6.172;2024-02-23T12:23:38;7.90;;;0.52;;
24585;SDS011;12743;52.262;6.172;2024-02-23T12:26:12;5.50;;;0.30;;
24585;SDS011;12743;52.262;6.172;2024-02-23T12:28:40;3.50;;;0.20;;
24585;SDS011;12743;52.262;6.172;2024-02-23T12:31:08;6.05;;;0.40;;
24585;SDS011;12743;52.262;6.172;2024-02-23T12:33:35;4.47;;;0.40;;
24585;SDS011;12743;52.262;6.172;2024-02-23T12:36:04;4.68;;;0.20;;
24585;SDS011;12743;52.262;6.172;2024-02-23T12:38:31;5.30;;;0.40;;
24585;SDS011;12743;52.262;6.172;2024-02-23T12:40:58;4.25;;;0.40;;
24585;SDS011;12743;52.262;6.172;2024-02-23T12:43:26;3.78;;;0.50;;
24585;SDS011;12743;52.262;6.172;2024-02-23T12:45:53;4.30;;;0.40;;
24585;SDS011;12743;52.262;6.172;2024-02-23T12:48:21;3.35;;;0.40;;
24585;SDS011;12743;52.262;6.172;2024-02-23T12:50:48;2.65;;;0.30;;
24585;SDS011;12743;52.262;6.172;2024-02-23T12:53:34;5.63;;;0.40;;
24585;SDS011;12743;52.262;6.172;2024-02-23T12:56:07;2.85;;;0.30;;
24585;SDS011;12743;52.262;6.172;2024-02-23T12:58:35;4.77;;;0.70;;
24585;SDS011;12743;52.262;6.172;2024-02-23T13:01:02;6.07;;;0.50;;
24585;SDS011;12743;52.262;6.172;2024-02-23T13:03:29;4.05;;;0.40;;
24585;SDS011;12743;52.262;6.172;2024-02-23T13:05:57;5.13;;;0.50;;
24585;SDS011;12743;52.262;6.172;2024-02-23T13:08:24;6.07;;;0.40;;
24585;SDS011;12743;52.262;6.172;2024-02-23T13:10:52;3.47;;;0.50;;
24585;SDS011;12743;52.262;6.172;2024-02-23T13:13:19;3.30;;;0.40;;
24585;SDS011;12743;52.262;6.172;2024-02-23T13:15:46;4.60;;;0.47;;
24585;SDS011;12743;52.262;6.172;2024-02-23T13:18:14;4.63;;;0.40;;
24585;SDS011;12743;52.262;6.172;2024-02-23T13:20:41;3.17;;;0.35;;
24585;SDS011;12743;52.262;6.172;2024-02-23T13:23:08;3.83;;;0.57;;
24585;SDS011;12743;52.262;6.172;2024-02-23T13:25:35;3.28;;;0.47;;
24585;SDS011;12743;52.262;6.172;2024-02-23T13:28:02;3.78;;;0.45;;
24585;SDS011;12743;52.262;6.172;2024-02-23T13:30:31;6.22;;;0.50;;
24585;SDS011;12743;52.262;6.172;2024-02-23T13:32:58;2.95;;;0.40;;
24585;SDS011;12743;52.262;6.172;2024-02-23T13:35:25;6.63;;;0.40;;
24585;SDS011;12743;52.262;6.172;2024-02-23T13:37:52;5.18;;;0.40;;
24585;SDS011;12743;52.262;6.172;2024-02-23T13:40:19;5.47;;;0.30;;
24585;SDS011;12743;52.262;6.172;2024-02-23T13:42:47;3.45;;;0.30;;
24585;SDS011;12743;52.262;6.172;2024-02-23T13:45:16;5.35;;;0.38;;
24585;SDS011;12743;52.262;6.172;2024-02-23T13:47:44;4.27;;;0.40;;
24585;SDS011;12743;52.262;6.172;2024-02-23T13:50:23;4.25;;;0.47;;
24585;SDS011;12743;52.262;6.172;2024-02-23T13:52:49;3.47;;;0.40;;
24585;SDS011;12743;52.262;6.172;2024-02-23T13:55:16;4.68;;;0.50;;
24585;SDS011;12743;52.262;6.172;2024-02-23T13:57:43;5.43;;;1.27;;
24585;SDS011;12743;52.262;6.172;2024-02-23T14:00:09;3.70;;;0.57;;
24585;SDS011;12743;52.262;6.172;2024-02-23T14:02:39;5.72;;;0.50;;
24585;SDS011;12743;52.262;6.172;2024-02-23T14:05:09;6.63;;;0.43;;
24585;SDS011;12743;52.262;6.172;2024-02-23T14:07:36;5.82;;;0.60;;
24585;SDS011;12743;52.262;6.172;2024-02-23T14:10:03;7.75;;;0.65;;
24585;SDS011;12743;52.262;6.172;2024-02-23T14:12:30;7.33;;;0.90;;
24585;SDS011;12743;52.262;6.172;2024-02-23T14:14:56;6.15;;;0.82;;
24585;SDS011;12743;52.262;6.172;2024-02-23T14:17:23;3.17;;;0.47;;
24585;SDS011;12743;52.262;6.172;2024-02-23T14:19:51;3.97;;;0.30;;
24585;SDS011;12743;52.262;6.172;2024-02-23T14:22:17;5.80;;;0.60;;
24585;SDS011;12743;52.262;6.172;2024-02-23T14:24:44;6.17;;;0.63;;
24585;SDS011;12743;52.262;6.172;2024-02-23T14:27:11;4.70;;;0.38;;
24585;SDS011;12743;52.262;6.172;2024-02-23T14:29:37;3.28;;;0.57;;
24585;SDS011;12743;52.262;6.172;2024-02-23T14:32:04;5.22;;;0.82;;
24585;SDS011;12743;52.262;6.172;2024-02-23T14:34:31;2.97;;;0.35;;
24585;SDS011;12743;52.262;6.172;2024-02-23T14:36:59;3.73;;;0.40;;
24585;SDS011;12743;52.262;6.172;2024-02-23T14:39:26;3.95;;;0.50;;
24585;SDS011;12743;52.262;6.172;2024-02-23T14:41:53;4.45;;;0.32;;
24585;SDS011;12743;52.262;6.172;2024-02-23T14:44:20;3.50;;;0.60;;
24585;SDS011;12743;52.262;6.172;2024-02-23T14:46:47;6.53;;;0.63;;
24585;SDS011;12743;52.262;6.172;2024-02-23T14:49:14;7.57;;;0.70;;
24585;SDS011;12743;52.262;6.172;2024-02-23T14:51:40;4.55;;;0.50;;